sensor_id;sensor_type;location;lat;lon;timestamp;temperature;humidity
74376;HTU21D;62812;55.188;61.302;2023-07-02T00:01:50;22.40;50.23
74376;HTU21D;62812;55.188;61.302;2023-07-02T00:04:18;22.50;49.26
74376;HTU21D;62812;55.188;61.302;2023-07-02T00:06:46;22.77;48.70
74376;HTU21D;62812;55.188;61.302;2023-07-02T00:09:13;23.05;48.65
74376;HTU21D;62812;55.188;61.302;2023-07-02T00:11:40;23.16;48.88
74376;HTU21D;62812;55.188;61.302;2023-07-02T00:14:08;23.38;47.26
74376;HTU21D;62812;55.188;61.302;2023-07-02T00:16:35;23.61;46.43
74376;HTU21D;62812;55.188;61.302;2023-07-02T00:19:02;23.77;46.12
74376;HTU21D;62812;55.188;61.302;2023-07-02T00:21:30;24.08;45.21
74376;HTU21D;62812;55.188;61.302;2023-07-02T00:23:59;24.39;44.29
74376;HTU21D;62812;55.188;61.302;2023-07-02T00:26:27;24.48;44.64
74376;HTU21D;62812;55.188;61.302;2023-07-02T00:28:54;24.51;43.97
74376;HTU21D;62812;55.188;61.302;2023-07-02T00:31:21;24.62;42.56
74376;HTU21D;62812;55.188;61.302;2023-07-02T00:33:48;24.79;42.80
74376;HTU21D;62812;55.188;61.302;2023-07-02T00:36:14;24.68;41.87
74376;HTU21D;62812;55.188;61.302;2023-07-02T00:38:44;24.89;41.63
74376;HTU21D;62812;55.188;61.302;2023-07-02T00:41:11;25.28;43.42
74376;HTU21D;62812;55.188;61.302;2023-07-02T00:43:38;25.61;41.10
74376;HTU21D;62812;55.188;61.302;2023-07-02T00:46:14;25.51;41.83
74376;HTU21D;62812;55.188;61.302;2023-07-02T00:48:45;25.66;39.97
74376;HTU21D;62812;55.188;61.302;2023-07-02T00:51:15;25.75;39.61
74376;HTU21D;62812;55.188;61.302;2023-07-02T00:53:44;25.95;39.31
74376;HTU21D;62812;55.188;61.302;2023-07-02T00:56:10;26.28;40.17
74376;HTU21D;62812;55.188;61.302;2023-07-02T00:58:39;26.53;37.92
74376;HTU21D;62812;55.188;61.302;2023-07-02T01:01:06;26.70;37.08
74376;HTU21D;62812;55.188;61.302;2023-07-02T01:03:35;26.69;36.49
74376;HTU21D;62812;55.188;61.302;2023-07-02T01:06:03;26.53;37.88
74376;HTU21D;62812;55.188;61.302;2023-07-02T01:08:30;26.51;38.47
74376;HTU21D;62812;55.188;61.302;2023-07-02T01:10:59;26.53;37.43
74376;HTU21D;62812;55.188;61.302;2023-07-02T01:13:27;26.45;38.66
74376;HTU21D;62812;55.188;61.302;2023-07-02T01:15:54;26.34;38.30
74376;HTU21D;62812;55.188;61.302;2023-07-02T01:18:22;26.32;39.33
74376;HTU21D;62812;55.188;61.302;2023-07-02T01:20:51;26.12;39.91
74376;HTU21D;62812;55.188;61.302;2023-07-02T01:23:20;26.22;39.59
74376;HTU21D;62812;55.188;61.302;2023-07-02T01:25:47;26.27;39.67
74376;HTU21D;62812;55.188;61.302;2023-07-02T01:28:15;26.22;41.41
74376;HTU21D;62812;55.188;61.302;2023-07-02T01:30:42;26.47;37.40
74376;HTU21D;62812;55.188;61.302;2023-07-02T01:33:08;26.54;38.40
74376;HTU21D;62812;55.188;61.302;2023-07-02T01:35:35;26.37;37.68
74376;HTU21D;62812;55.188;61.302;2023-07-02T01:38:03;26.18;38.07
74376;HTU21D;62812;55.188;61.302;2023-07-02T01:40:30;25.95;40.01
74376;HTU21D;62812;55.188;61.302;2023-07-02T01:42:58;25.90;40.93
74376;HTU21D;62812;55.188;61.302;2023-07-02T01:45:25;26.48;40.93
74376;HTU21D;62812;55.188;61.302;2023-07-02T01:47:51;26.80;37.27
74376;HTU21D;62812;55.188;61.302;2023-07-02T01:50:18;26.43;37.27
74376;HTU21D;62812;55.188;61.302;2023-07-02T01:52:47;26.26;37.24
74376;HTU21D;62812;55.188;61.302;2023-07-02T01:55:32;26.56;36.39
74376;HTU21D;62812;55.188;61.302;2023-07-02T01:57:59;26.85;38.16
74376;HTU21D;62812;55.188;61.302;2023-07-02T02:00:29;26.65;37.12
74376;HTU21D;62812;55.188;61.302;2023-07-02T02:02:59;26.48;37.85
74376;HTU21D;62812;55.188;61.302;2023-07-02T02:05:27;26.83;39.30
74376;HTU21D;62812;55.188;61.302;2023-07-02T02:07:55;27.07;36.14
74376;HTU21D;62812;55.188;61.302;2023-07-02T02:10:26;27.36;35.56
74376;HTU21D;62812;55.188;61.302;2023-07-02T02:12:54;26.82;35.56
74376;HTU21D;62812;55.188;61.302;2023-07-02T02:15:21;26.38;35.90
74376;HTU21D;62812;55.188;61.302;2023-07-02T02:17:48;26.01;37.73
74376;HTU21D;62812;55.188;61.302;2023-07-02T02:20:15;25.93;38.62
74376;HTU21D;62812;55.188;61.302;2023-07-02T02:22:42;25.86;37.73
74376;HTU21D;62812;55.188;61.302;2023-07-02T02:25:09;25.93;37.57
74376;HTU21D;62812;55.188;61.302;2023-07-02T02:27:36;26.26;37.34
74376;HTU21D;62812;55.188;61.302;2023-07-02T02:30:06;26.66;36.89
74376;HTU21D;62812;55.188;61.302;2023-07-02T02:32:33;27.28;35.97
74376;HTU21D;62812;55.188;61.302;2023-07-02T02:35:00;27.55;34.78
74376;HTU21D;62812;55.188;61.302;2023-07-02T02:37:27;28.54;33.09
74376;HTU21D;62812;55.188;61.302;2023-07-02T02:39:54;28.87;33.24
74376;HTU21D;62812;55.188;61.302;2023-07-02T02:42:21;29.03;32.28
74376;HTU21D;62812;55.188;61.302;2023-07-02T02:44:48;29.52;33.49
74376;HTU21D;62812;55.188;61.302;2023-07-02T02:47:16;30.20;29.99
74376;HTU21D;62812;55.188;61.302;2023-07-02T02:49:43;30.21;32.69
74376;HTU21D;62812;55.188;61.302;2023-07-02T02:52:11;30.56;30.70
74376;HTU21D;62812;55.188;61.302;2023-07-02T02:54:42;31.52;30.51
74376;HTU21D;62812;55.188;61.302;2023-07-02T02:57:09;31.38;27.07
74376;HTU21D;62812;55.188;61.302;2023-07-02T02:59:35;31.49;26.90
74376;HTU21D;62812;55.188;61.302;2023-07-02T03:02:02;31.42;26.42
74376;HTU21D;62812;55.188;61.302;2023-07-02T03:04:33;31.58;26.75
74376;HTU21D;62812;55.188;61.302;2023-07-02T03:07:01;31.63;25.69
74376;HTU21D;62812;55.188;61.302;2023-07-02T03:09:27;31.24;26.59
74376;HTU21D;62812;55.188;61.302;2023-07-02T03:11:54;31.39;26.87
74376;HTU21D;62812;55.188;61.302;2023-07-02T03:14:22;31.82;26.02
74376;HTU21D;62812;55.188;61.302;2023-07-02T03:16:52;31.84;25.66
74376;HTU21D;62812;55.188;61.302;2023-07-02T03:19:18;31.84;25.04
74376;HTU21D;62812;55.188;61.302;2023-07-02T03:21:47;31.66;26.12
74376;HTU21D;62812;55.188;61.302;2023-07-02T03:24:19;32.20;29.21
74376;HTU21D;62812;55.188;61.302;2023-07-02T03:26:45;32.47;25.27
74376;HTU21D;62812;55.188;61.302;2023-07-02T03:29:13;32.45;25.94
74376;HTU21D;62812;55.188;61.302;2023-07-02T03:31:40;31.74;26.37
74376;HTU21D;62812;55.188;61.302;2023-07-02T03:34:09;31.25;26.86
74376;HTU21D;62812;55.188;61.302;2023-07-02T03:36:36;31.26;27.17
74376;HTU21D;62812;55.188;61.302;2023-07-02T03:39:05;31.51;25.97
74376;HTU21D;62812;55.188;61.302;2023-07-02T03:41:33;31.86;25.89
74376;HTU21D;62812;55.188;61.302;2023-07-02T03:43:59;31.46;27.07
74376;HTU21D;62812;55.188;61.302;2023-07-02T03:46:27;31.30;27.05
74376;HTU21D;62812;55.188;61.302;2023-07-02T03:48:53;31.46;26.63
74376;HTU21D;62812;55.188;61.302;2023-07-02T03:51:20;31.55;28.80
74376;HTU21D;62812;55.188;61.302;2023-07-02T03:53:47;32.17;27.23
74376;HTU21D;62812;55.188;61.302;2023-07-02T03:56:17;32.15;25.43
74376;HTU21D;62812;55.188;61.302;2023-07-02T03:58:44;31.69;26.21
74376;HTU21D;62812;55.188;61.302;2023-07-02T04:01:11;31.98;26.10
74376;HTU21D;62812;55.188;61.302;2023-07-02T04:03:37;32.13;28.29
74376;HTU21D;62812;55.188;61.302;2023-07-02T04:06:05;32.39;27.73
74376;HTU21D;62812;55.188;61.302;2023-07-02T04:08:35;32.39;26.04
74376;HTU21D;62812;55.188;61.302;2023-07-02T04:11:02;32.11;26.71
74376;HTU21D;62812;55.188;61.302;2023-07-02T04:13:30;32.05;27.01
74376;HTU21D;62812;55.188;61.302;2023-07-02T04:15:57;31.74;28.03
74376;HTU21D;62812;55.188;61.302;2023-07-02T04:18:24;31.78;26.96
74376;HTU21D;62812;55.188;61.302;2023-07-02T04:20:54;32.39;26.84
74376;HTU21D;62812;55.188;61.302;2023-07-02T04:23:21;32.75;26.36
74376;HTU21D;62812;55.188;61.302;2023-07-02T04:25:48;33.30;24.81
74376;HTU21D;62812;55.188;61.302;2023-07-02T04:28:15;33.15;26.92
74376;HTU21D;62812;55.188;61.302;2023-07-02T04:30:45;33.50;23.41
74376;HTU21D;62812;55.188;61.302;2023-07-02T04:33:16;33.61;26.76
74376;HTU21D;62812;55.188;61.302;2023-07-02T04:35:43;33.87;23.17
74376;HTU21D;62812;55.188;61.302;2023-07-02T04:38:11;33.97;22.57
74376;HTU21D;62812;55.188;61.302;2023-07-02T04:40:41;34.03;25.46
74376;HTU21D;62812;55.188;61.302;2023-07-02T04:43:15;34.46;24.70
74376;HTU21D;62812;55.188;61.302;2023-07-02T04:45:46;34.31;24.82
74376;HTU21D;62812;55.188;61.302;2023-07-02T04:48:14;33.85;25.38
74376;HTU21D;62812;55.188;61.302;2023-07-02T04:50:43;33.44;25.78
74376;HTU21D;62812;55.188;61.302;2023-07-02T04:53:11;33.17;26.00
74376;HTU21D;62812;55.188;61.302;2023-07-02T04:55:37;33.47;25.43
74376;HTU21D;62812;55.188;61.302;2023-07-02T04:58:05;33.62;25.02
74376;HTU21D;62812;55.188;61.302;2023-07-02T05:00:32;33.71;24.75
74376;HTU21D;62812;55.188;61.302;2023-07-02T05:03:00;33.41;25.19
74376;HTU21D;62812;55.188;61.302;2023-07-02T05:05:27;32.98;25.52
74376;HTU21D;62812;55.188;61.302;2023-07-02T05:07:54;32.67;25.75
74376;HTU21D;62812;55.188;61.302;2023-07-02T05:10:21;32.61;25.76
74376;HTU21D;62812;55.188;61.302;2023-07-02T05:12:49;32.63;25.78
74376;HTU21D;62812;55.188;61.302;2023-07-02T05:15:15;32.57;25.91
74376;HTU21D;62812;55.188;61.302;2023-07-02T05:17:43;32.44;26.21
74376;HTU21D;62812;55.188;61.302;2023-07-02T05:20:13;32.34;26.41
74376;HTU21D;62812;55.188;61.302;2023-07-02T05:22:40;32.19;26.86
74376;HTU21D;62812;55.188;61.302;2023-07-02T05:25:08;31.89;27.61
74376;HTU21D;62812;55.188;61.302;2023-07-02T05:27:35;31.86;27.60
74376;HTU21D;62812;55.188;61.302;2023-07-02T05:30:03;31.87;27.45
74376;HTU21D;62812;55.188;61.302;2023-07-02T05:32:33;31.74;27.65
74376;HTU21D;62812;55.188;61.302;2023-07-02T05:35:05;31.40;28.00
74376;HTU21D;62812;55.188;61.302;2023-07-02T05:37:39;31.18;28.26
74376;HTU21D;62812;55.188;61.302;2023-07-02T05:40:10;31.06;28.32
74376;HTU21D;62812;55.188;61.302;2023-07-02T05:42:38;31.00;27.50
74376;HTU21D;62812;55.188;61.302;2023-07-02T05:45:05;31.09;28.32
74376;HTU21D;62812;55.188;61.302;2023-07-02T05:47:32;31.02;28.33
74376;HTU21D;62812;55.188;61.302;2023-07-02T05:49:59;30.86;28.71
74376;HTU21D;62812;55.188;61.302;2023-07-02T05:52:26;30.67;29.10
74376;HTU21D;62812;55.188;61.302;2023-07-02T05:55:02;30.67;28.97
74376;HTU21D;62812;55.188;61.302;2023-07-02T05:57:28;30.62;29.17
74376;HTU21D;62812;55.188;61.302;2023-07-02T05:59:55;30.49;29.33
74376;HTU21D;62812;55.188;61.302;2023-07-02T06:02:24;30.59;29.09
74376;HTU21D;62812;55.188;61.302;2023-07-02T06:04:55;30.40;29.61
74376;HTU21D;62812;55.188;61.302;2023-07-02T06:07:24;30.33;29.90
74376;HTU21D;62812;55.188;61.302;2023-07-02T06:09:51;30.17;30.51
74376;HTU21D;62812;55.188;61.302;2023-07-02T06:12:20;30.15;30.74
74376;HTU21D;62812;55.188;61.302;2023-07-02T06:14:49;30.05;30.88
74376;HTU21D;62812;55.188;61.302;2023-07-02T06:17:16;30.17;30.77
74376;HTU21D;62812;55.188;61.302;2023-07-02T06:19:44;30.12;31.02
74376;HTU21D;62812;55.188;61.302;2023-07-02T06:22:11;30.13;31.16
74376;HTU21D;62812;55.188;61.302;2023-07-02T06:24:43;30.11;31.03
74376;HTU21D;62812;55.188;61.302;2023-07-02T06:27:10;30.21;31.01
74376;HTU21D;62812;55.188;61.302;2023-07-02T06:29:38;30.34;31.08
74376;HTU21D;62812;55.188;61.302;2023-07-02T06:32:06;30.18;30.07
74376;HTU21D;62812;55.188;61.302;2023-07-02T06:34:34;30.26;31.76
74376;HTU21D;62812;55.188;61.302;2023-07-02T06:37:04;30.47;31.05
74376;HTU21D;62812;55.188;61.302;2023-07-02T06:39:31;30.68;30.71
74376;HTU21D;62812;55.188;61.302;2023-07-02T06:41:57;30.74;28.80
74376;HTU21D;62812;55.188;61.302;2023-07-02T06:44:24;30.78;28.93
74376;HTU21D;62812;55.188;61.302;2023-07-02T06:46:53;30.76;29.78
74376;HTU21D;62812;55.188;61.302;2023-07-02T06:49:20;30.83;29.87
74376;HTU21D;62812;55.188;61.302;2023-07-02T06:51:48;31.02;28.56
74376;HTU21D;62812;55.188;61.302;2023-07-02T06:54:16;31.12;28.68
74376;HTU21D;62812;55.188;61.302;2023-07-02T06:56:42;31.07;28.89
74376;HTU21D;62812;55.188;61.302;2023-07-02T06:59:10;30.86;28.49
74376;HTU21D;62812;55.188;61.302;2023-07-02T07:01:39;30.78;28.97
74376;HTU21D;62812;55.188;61.302;2023-07-02T07:04:07;30.82;30.33
74376;HTU21D;62812;55.188;61.302;2023-07-02T07:06:34;30.96;29.64
74376;HTU21D;62812;55.188;61.302;2023-07-02T07:09:00;31.01;28.89
74376;HTU21D;62812;55.188;61.302;2023-07-02T07:11:28;31.02;29.71
74376;HTU21D;62812;55.188;61.302;2023-07-02T07:13:55;31.24;30.09
74376;HTU21D;62812;55.188;61.302;2023-07-02T07:16:21;31.45;30.09
74376;HTU21D;62812;55.188;61.302;2023-07-02T07:18:50;31.38;28.74
74376;HTU21D;62812;55.188;61.302;2023-07-02T07:21:18;31.33;28.70
74376;HTU21D;62812;55.188;61.302;2023-07-02T07:23:45;31.43;29.25
74376;HTU21D;62812;55.188;61.302;2023-07-02T07:26:12;31.44;30.07
74376;HTU21D;62812;55.188;61.302;2023-07-02T07:28:39;31.63;29.68
74376;HTU21D;62812;55.188;61.302;2023-07-02T07:31:07;31.58;29.95
74376;HTU21D;62812;55.188;61.302;2023-07-02T07:33:34;31.75;29.46
74376;HTU21D;62812;55.188;61.302;2023-07-02T07:36:00;31.97;29.82
74376;HTU21D;62812;55.188;61.302;2023-07-02T07:38:28;32.08;30.72
74376;HTU21D;62812;55.188;61.302;2023-07-02T07:40:56;32.05;30.61
74376;HTU21D;62812;55.188;61.302;2023-07-02T07:43:23;32.00;30.74
74376;HTU21D;62812;55.188;61.302;2023-07-02T07:45:49;31.86;30.82
74376;HTU21D;62812;55.188;61.302;2023-07-02T07:48:16;31.68;29.93
74376;HTU21D;62812;55.188;61.302;2023-07-02T07:50:47;31.70;30.87
74376;HTU21D;62812;55.188;61.302;2023-07-02T07:53:13;31.65;29.79
74376;HTU21D;62812;55.188;61.302;2023-07-02T07:55:41;31.61;30.54
74376;HTU21D;62812;55.188;61.302;2023-07-02T07:58:08;31.42;32.47
74376;HTU21D;62812;55.188;61.302;2023-07-02T08:00:35;31.14;29.53
74376;HTU21D;62812;55.188;61.302;2023-07-02T08:03:02;31.36;33.63
74376;HTU21D;62812;55.188;61.302;2023-07-02T08:05:30;31.45;33.75
74376;HTU21D;62812;55.188;61.302;2023-07-02T08:07:56;31.56;33.49
74376;HTU21D;62812;55.188;61.302;2023-07-02T08:10:29;31.51;33.57
74376;HTU21D;62812;55.188;61.302;2023-07-02T08:12:59;31.34;33.29
74376;HTU21D;62812;55.188;61.302;2023-07-02T08:15:26;31.30;32.96
74376;HTU21D;62812;55.188;61.302;2023-07-02T08:17:52;31.40;33.17
74376;HTU21D;62812;55.188;61.302;2023-07-02T08:20:21;31.33;33.83
74376;HTU21D;62812;55.188;61.302;2023-07-02T08:22:48;31.19;33.76
74376;HTU21D;62812;55.188;61.302;2023-07-02T08:25:16;31.07;33.47
74376;HTU21D;62812;55.188;61.302;2023-07-02T08:27:44;30.87;33.63
74376;HTU21D;62812;55.188;61.302;2023-07-02T08:30:12;30.87;33.67
74376;HTU21D;62812;55.188;61.302;2023-07-02T08:32:39;30.78;34.16
74376;HTU21D;62812;55.188;61.302;2023-07-02T08:35:06;30.83;34.35
74376;HTU21D;62812;55.188;61.302;2023-07-02T08:37:34;30.87;34.30
74376;HTU21D;62812;55.188;61.302;2023-07-02T08:40:00;31.01;34.12
74376;HTU21D;62812;55.188;61.302;2023-07-02T08:42:27;31.14;34.07
74376;HTU21D;62812;55.188;61.302;2023-07-02T08:44:56;31.19;33.94
74376;HTU21D;62812;55.188;61.302;2023-07-02T08:47:27;31.23;33.60
74376;HTU21D;62812;55.188;61.302;2023-07-02T08:49:54;31.29;33.22
74376;HTU21D;62812;55.188;61.302;2023-07-02T08:52:21;31.23;33.40
74376;HTU21D;62812;55.188;61.302;2023-07-02T08:54:47;31.27;33.26
74376;HTU21D;62812;55.188;61.302;2023-07-02T08:57:14;31.08;33.48
74376;HTU21D;62812;55.188;61.302;2023-07-02T08:59:41;30.77;31.35
74376;HTU21D;62812;55.188;61.302;2023-07-02T09:02:09;30.33;32.60
74376;HTU21D;62812;55.188;61.302;2023-07-02T09:04:38;29.78;33.41
74376;HTU21D;62812;55.188;61.302;2023-07-02T09:07:06;29.49;32.83
74376;HTU21D;62812;55.188;61.302;2023-07-02T09:09:33;29.82;35.85
74376;HTU21D;62812;55.188;61.302;2023-07-02T09:12:01;30.33;35.63
74376;HTU21D;62812;55.188;61.302;2023-07-02T09:14:29;30.63;35.34
74376;HTU21D;62812;55.188;61.302;2023-07-02T09:17:04;30.90;34.84
74376;HTU21D;62812;55.188;61.302;2023-07-02T09:19:31;31.10;34.42
74376;HTU21D;62812;55.188;61.302;2023-07-02T09:22:11;31.15;33.14
74376;HTU21D;62812;55.188;61.302;2023-07-02T09:24:41;31.05;34.41
74376;HTU21D;62812;55.188;61.302;2023-07-02T09:27:10;30.91;34.06
74376;HTU21D;62812;55.188;61.302;2023-07-02T09:29:37;30.75;32.09
74376;HTU21D;62812;55.188;61.302;2023-07-02T09:32:05;30.25;32.68
74376;HTU21D;62812;55.188;61.302;2023-07-02T09:34:36;29.71;32.98
74376;HTU21D;62812;55.188;61.302;2023-07-02T09:37:05;29.23;33.92
74376;HTU21D;62812;55.188;61.302;2023-07-02T09:39:33;28.93;33.73
74376;HTU21D;62812;55.188;61.302;2023-07-02T09:42:02;29.14;36.85
74376;HTU21D;62812;55.188;61.302;2023-07-02T09:44:33;29.75;37.56
74376;HTU21D;62812;55.188;61.302;2023-07-02T09:47:02;29.85;35.53
74376;HTU21D;62812;55.188;61.302;2023-07-02T09:58:12;29.12;35.48
74376;HTU21D;62812;55.188;61.302;2023-07-02T10:00:41;28.98;34.63
74376;HTU21D;62812;55.188;61.302;2023-07-02T10:03:10;28.83;35.40
74376;HTU21D;62812;55.188;61.302;2023-07-02T10:05:41;28.71;35.45
74376;HTU21D;62812;55.188;61.302;2023-07-02T10:08:14;28.64;36.01
74376;HTU21D;62812;55.188;61.302;2023-07-02T10:10:51;28.61;36.50
74376;HTU21D;62812;55.188;61.302;2023-07-02T10:13:28;28.60;36.64
74376;HTU21D;62812;55.188;61.302;2023-07-02T10:16:01;28.61;35.56
74376;HTU21D;62812;55.188;61.302;2023-07-02T10:18:27;28.52;35.27
74376;HTU21D;62812;55.188;61.302;2023-07-02T10:20:54;28.79;37.38
74376;HTU21D;62812;55.188;61.302;2023-07-02T10:23:32;29.39;37.68
74376;HTU21D;62812;55.188;61.302;2023-07-02T10:26:10;29.73;35.53
74376;HTU21D;62812;55.188;61.302;2023-07-02T10:28:38;30.10;36.95
74376;HTU21D;62812;55.188;61.302;2023-07-02T10:31:05;30.36;33.47
74376;HTU21D;62812;55.188;61.302;2023-07-02T10:33:43;30.22;33.66
74376;HTU21D;62812;55.188;61.302;2023-07-02T10:36:18;30.32;36.42
74376;HTU21D;62812;55.188;61.302;2023-07-02T10:38:44;30.68;33.18
74376;HTU21D;62812;55.188;61.302;2023-07-02T10:41:11;30.66;33.22
74376;HTU21D;62812;55.188;61.302;2023-07-02T10:43:42;30.98;35.42
74376;HTU21D;62812;55.188;61.302;2023-07-02T10:46:18;31.00;35.37
74376;HTU21D;62812;55.188;61.302;2023-07-02T10:48:51;30.63;32.73
74376;HTU21D;62812;55.188;61.302;2023-07-02T10:51:19;30.77;35.51
74376;HTU21D;62812;55.188;61.302;2023-07-02T10:53:56;30.55;31.61
74376;HTU21D;62812;55.188;61.302;2023-07-02T10:56:26;30.66;32.15
74376;HTU21D;62812;55.188;61.302;2023-07-02T10:59:02;30.89;33.07
74376;HTU21D;62812;55.188;61.302;2023-07-02T11:01:30;30.60;32.41
74376;HTU21D;62812;55.188;61.302;2023-07-02T11:04:00;30.34;33.45
74376;HTU21D;62812;55.188;61.302;2023-07-02T11:06:28;30.56;32.54
74376;HTU21D;62812;55.188;61.302;2023-07-02T11:08:56;30.51;35.00
74376;HTU21D;62812;55.188;61.302;2023-07-02T11:11:27;30.45;33.12
74376;HTU21D;62812;55.188;61.302;2023-07-02T11:14:00;30.23;32.75
74376;HTU21D;62812;55.188;61.302;2023-07-02T11:16:33;30.28;32.96
74376;HTU21D;62812;55.188;61.302;2023-07-02T11:19:09;30.57;35.70
74376;HTU21D;62812;55.188;61.302;2023-07-02T11:21:57;30.67;35.73
74376;HTU21D;62812;55.188;61.302;2023-07-02T11:24:39;30.98;35.29
74376;HTU21D;62812;55.188;61.302;2023-07-02T11:27:26;31.25;34.83
74376;HTU21D;62812;55.188;61.302;2023-07-02T11:30:45;30.67;33.77
74376;HTU21D;62812;55.188;61.302;2023-07-02T11:33:46;30.74;33.27
74376;HTU21D;62812;55.188;61.302;2023-07-02T11:36:31;30.83;31.03
74376;HTU21D;62812;55.188;61.302;2023-07-02T11:39:32;30.67;34.42
74376;HTU21D;62812;55.188;61.302;2023-07-02T11:42:12;30.52;34.81
74376;HTU21D;62812;55.188;61.302;2023-07-02T11:44:50;30.81;34.49
74376;HTU21D;62812;55.188;61.302;2023-07-02T11:47:21;30.68;32.11
74376;HTU21D;62812;55.188;61.302;2023-07-02T11:49:50;30.17;32.27
74376;HTU21D;62812;55.188;61.302;2023-07-02T11:52:18;29.82;32.54
74376;HTU21D;62812;55.188;61.302;2023-07-02T11:54:45;29.80;32.86
74376;HTU21D;62812;55.188;61.302;2023-07-02T11:57:14;29.71;33.31
74376;HTU21D;62812;55.188;61.302;2023-07-02T11:59:41;29.45;33.69
74376;HTU21D;62812;55.188;61.302;2023-07-02T12:02:09;29.64;36.01
74376;HTU21D;62812;55.188;61.302;2023-07-02T12:04:37;29.98;35.51
74376;HTU21D;62812;55.188;61.302;2023-07-02T12:07:05;29.82;34.67
74376;HTU21D;62812;55.188;61.302;2023-07-02T12:09:31;30.18;32.78
74376;HTU21D;62812;55.188;61.302;2023-07-02T12:11:58;29.90;32.61
74376;HTU21D;62812;55.188;61.302;2023-07-02T12:14:25;29.57;33.59
74376;HTU21D;62812;55.188;61.302;2023-07-02T12:16:57;29.93;33.23
74376;HTU21D;62812;55.188;61.302;2023-07-02T12:19:34;30.04;35.18
74376;HTU21D;62812;55.188;61.302;2023-07-02T12:22:08;29.74;33.11
74376;HTU21D;62812;55.188;61.302;2023-07-02T12:24:35;29.73;32.85
74376;HTU21D;62812;55.188;61.302;2023-07-02T12:27:09;29.78;36.49
74376;HTU21D;62812;55.188;61.302;2023-07-02T12:29:39;30.18;36.39
74376;HTU21D;62812;55.188;61.302;2023-07-02T12:32:07;30.37;36.01
74376;HTU21D;62812;55.188;61.302;2023-07-02T12:34:35;30.04;32.81
74376;HTU21D;62812;55.188;61.302;2023-07-02T12:37:05;29.78;33.45
74376;HTU21D;62812;55.188;61.302;2023-07-02T12:39:34;29.41;35.95
74376;HTU21D;62812;55.188;61.302;2023-07-02T12:42:04;29.59;35.96
74376;HTU21D;62812;55.188;61.302;2023-07-02T12:44:31;29.59;33.76
74376;HTU21D;62812;55.188;61.302;2023-07-02T12:46:58;29.74;35.94
74376;HTU21D;62812;55.188;61.302;2023-07-02T12:49:26;29.52;33.41
74376;HTU21D;62812;55.188;61.302;2023-07-02T12:51:56;29.50;36.12
74376;HTU21D;62812;55.188;61.302;2023-07-02T12:54:23;29.41;33.54
74376;HTU21D;62812;55.188;61.302;2023-07-02T12:57:07;29.34;34.31
74376;HTU21D;62812;55.188;61.302;2023-07-02T12:59:47;29.51;33.26
74376;HTU21D;62812;55.188;61.302;2023-07-02T13:02:17;29.50;35.33
74376;HTU21D;62812;55.188;61.302;2023-07-02T13:04:48;29.41;33.28
74376;HTU21D;62812;55.188;61.302;2023-07-02T13:07:26;29.12;34.16
74376;HTU21D;62812;55.188;61.302;2023-07-02T13:09:56;29.02;34.66
74376;HTU21D;62812;55.188;61.302;2023-07-02T13:12:25;28.94;36.72
74376;HTU21D;62812;55.188;61.302;2023-07-02T13:14:53;28.78;34.34
74376;HTU21D;62812;55.188;61.302;2023-07-02T13:17:20;29.03;34.08
74376;HTU21D;62812;55.188;61.302;2023-07-02T13:19:52;29.23;35.89
74376;HTU21D;62812;55.188;61.302;2023-07-02T13:22:22;29.51;36.28
74376;HTU21D;62812;55.188;61.302;2023-07-02T13:24:50;29.65;37.38
74376;HTU21D;62812;55.188;61.302;2023-07-02T13:27:18;29.93;38.01
74376;HTU21D;62812;55.188;61.302;2023-07-02T13:29:48;29.96;38.33
74376;HTU21D;62812;55.188;61.302;2023-07-02T13:32:15;29.78;39.00
74376;HTU21D;62812;55.188;61.302;2023-07-02T13:34:57;29.57;38.46
74376;HTU21D;62812;55.188;61.302;2023-07-02T13:37:26;29.33;37.72
74376;HTU21D;62812;55.188;61.302;2023-07-02T13:39:56;28.45;44.72
74376;HTU21D;62812;55.188;61.302;2023-07-02T13:42:25;27.24;51.98
74376;HTU21D;62812;55.188;61.302;2023-07-02T13:44:57;27.38;44.42
74376;HTU21D;62812;55.188;61.302;2023-07-02T13:47:25;27.81;43.66
74376;HTU21D;62812;55.188;61.302;2023-07-02T13:49:53;27.93;45.55
74376;HTU21D;62812;55.188;61.302;2023-07-02T13:52:21;27.95;46.15
74376;HTU21D;62812;55.188;61.302;2023-07-02T13:54:47;27.95;46.78
74376;HTU21D;62812;55.188;61.302;2023-07-02T13:57:20;27.94;47.67
74376;HTU21D;62812;55.188;61.302;2023-07-02T13:59:48;27.88;47.90
74376;HTU21D;62812;55.188;61.302;2023-07-02T14:02:18;27.82;48.35
74376;HTU21D;62812;55.188;61.302;2023-07-02T14:05:01;27.78;48.59
74376;HTU21D;62812;55.188;61.302;2023-07-02T14:07:28;27.76;48.63
74376;HTU21D;62812;55.188;61.302;2023-07-02T14:09:54;27.71;48.79
74376;HTU21D;62812;55.188;61.302;2023-07-02T14:12:21;27.64;49.13
74376;HTU21D;62812;55.188;61.302;2023-07-02T14:14:51;27.55;49.53
74376;HTU21D;62812;55.188;61.302;2023-07-02T14:17:17;27.52;49.75
74376;HTU21D;62812;55.188;61.302;2023-07-02T14:19:46;27.57;50.08
74376;HTU21D;62812;55.188;61.302;2023-07-02T14:22:14;27.65;50.40
74376;HTU21D;62812;55.188;61.302;2023-07-02T14:24:46;27.66;50.29
74376;HTU21D;62812;55.188;61.302;2023-07-02T14:27:13;27.64;50.59
74376;HTU21D;62812;55.188;61.302;2023-07-02T14:29:40;27.63;51.31
74376;HTU21D;62812;55.188;61.302;2023-07-02T14:32:10;27.57;51.49
74376;HTU21D;62812;55.188;61.302;2023-07-02T14:34:43;27.47;51.83
74376;HTU21D;62812;55.188;61.302;2023-07-02T14:37:11;26.54;54.96
74376;HTU21D;62812;55.188;61.302;2023-07-02T14:39:38;25.32;59.57
74376;HTU21D;62812;55.188;61.302;2023-07-02T14:42:05;24.64;61.79
74376;HTU21D;62812;55.188;61.302;2023-07-02T14:44:33;24.01;63.29
74376;HTU21D;62812;55.188;61.302;2023-07-02T14:47:01;23.89;61.51
74376;HTU21D;62812;55.188;61.302;2023-07-02T14:49:33;24.31;64.01
74376;HTU21D;62812;55.188;61.302;2023-07-02T14:51:59;23.91;63.73
74376;HTU21D;62812;55.188;61.302;2023-07-02T14:54:26;23.55;63.65
74376;HTU21D;62812;55.188;61.302;2023-07-02T14:56:54;23.49;64.48
74376;HTU21D;62812;55.188;61.302;2023-07-02T14:59:21;23.36;64.94
74376;HTU21D;62812;55.188;61.302;2023-07-02T15:01:49;23.46;66.81
74376;HTU21D;62812;55.188;61.302;2023-07-02T15:04:17;23.38;68.79
74376;HTU21D;62812;55.188;61.302;2023-07-02T15:06:47;23.37;65.77
74376;HTU21D;62812;55.188;61.302;2023-07-02T15:09:42;23.46;63.05
74376;HTU21D;62812;55.188;61.302;2023-07-02T15:12:26;23.53;65.05
74376;HTU21D;62812;55.188;61.302;2023-07-02T15:15:09;23.36;62.97
74376;HTU21D;62812;55.188;61.302;2023-07-02T15:17:59;23.52;62.37
74376;HTU21D;62812;55.188;61.302;2023-07-02T15:20:54;23.94;62.54
74376;HTU21D;62812;55.188;61.302;2023-07-02T15:23:24;23.67;64.57
74376;HTU21D;62812;55.188;61.302;2023-07-02T15:26:00;23.56;62.37